sensor_id;sensor_type;location;lat;lon;timestamp;P1;durP1;ratioP1;P2;durP2;ratioP2
2023;SDS011;1016;48.770;9.154;2023-06-10T00:00:47;24.10;;;7.57;;
2023;SDS011;1016;48.770;9.154;2023-06-10T00:03:13;24.38;;;7.20;;
2023;SDS011;1016;48.770;9.154;2023-06-10T00:05:39;25.67;;;7.50;;
2023;SDS011;1016;48.770;9.154;2023-06-10T00:08:05;24.42;;;7.68;;
2023;SDS011;1016;48.770;9.154;2023-06-10T00:10:34;24.83;;;8.10;;
2023;SDS011;1016;48.770;9.154;2023-06-10T00:13:00;24.92;;;7.72;;
2023;SDS011;1016;48.770;9.154;2023-06-10T00:15:30;24.70;;;7.90;;
2023;SDS011;1016;48.770;9.154;2023-06-10T00:17:55;24.80;;;8.48;;
2023;SDS011;1016;48.770;9.154;2023-06-10T00:20:21;24.60;;;8.33;;
2023;SDS011;1016;48.770;9.154;2023-06-10T00:22:49;25.73;;;8.50;;
2023;SDS011;1016;48.770;9.154;2023-06-10T00:25:14;24.80;;;8.10;;
2023;SDS011;1016;48.770;9.154;2023-06-10T00:27:40;24.80;;;8.00;;
2023;SDS011;1016;48.770;9.154;2023-06-10T00:30:06;26.20;;;7.70;;
2023;SDS011;1016;48.770;9.154;2023-06-10T00:32:33;24.20;;;7.95;;
2023;SDS011;1016;48.770;9.154;2023-06-10T00:34:59;24.20;;;8.00;;
2023;SDS011;1016;48.770;9.154;2023-06-10T00:37:24;24.57;;;7.60;;
2023;SDS011;1016;48.770;9.154;2023-06-10T00:39:50;24.13;;;7.75;;
2023;SDS011;1016;48.770;9.154;2023-06-10T00:42:16;23.98;;;7.97;;
2023;SDS011;1016;48.770;9.154;2023-06-10T00:44:41;24.13;;;7.27;;
2023;SDS011;1016;48.770;9.154;2023-06-10T00:47:07;24.80;;;7.40;;
2023;SDS011;1016;48.770;9.154;2023-06-10T00:49:33;24.60;;;7.20;;
2023;SDS011;1016;48.770;9.154;2023-06-10T00:52:00;24.50;;;7.70;;
2023;SDS011;1016;48.770;9.154;2023-06-10T00:54:27;23.83;;;7.53;;
2023;SDS011;1016;48.770;9.154;2023-06-10T00:56:53;24.93;;;7.57;;
2023;SDS011;1016;48.770;9.154;2023-06-10T00:59:18;24.00;;;7.73;;
2023;SDS011;1016;48.770;9.154;2023-06-10T01:01:45;24.23;;;7.63;;
2023;SDS011;1016;48.770;9.154;2023-06-10T01:04:12;25.40;;;8.10;;
2023;SDS011;1016;48.770;9.154;2023-06-10T01:09:39;25.77;;;7.93;;
2023;SDS011;1016;48.770;9.154;2023-06-10T01:12:41;24.98;;;8.20;;
2023;SDS011;1016;48.770;9.154;2023-06-10T01:15:13;24.92;;;7.95;;
2023;SDS011;1016;48.770;9.154;2023-06-10T01:17:56;25.63;;;8.50;;
2023;SDS011;1016;48.770;9.154;2023-06-10T01:20:24;25.30;;;8.95;;
2023;SDS011;1016;48.770;9.154;2023-06-10T01:22:51;24.83;;;7.97;;
2023;SDS011;1016;48.770;9.154;2023-06-10T01:25:19;24.92;;;8.30;;
2023;SDS011;1016;48.770;9.154;2023-06-10T01:27:52;24.03;;;7.90;;
2023;SDS011;1016;48.770;9.154;2023-06-10T01:30:20;26.70;;;7.97;;
2023;SDS011;1016;48.770;9.154;2023-06-10T01:32:54;24.80;;;7.47;;
2023;SDS011;1016;48.770;9.154;2023-06-10T01:35:22;24.20;;;7.93;;
2023;SDS011;1016;48.770;9.154;2023-06-10T01:37:51;25.43;;;7.50;;
2023;SDS011;1016;48.770;9.154;2023-06-10T01:40:19;25.83;;;7.83;;
2023;SDS011;1016;48.770;9.154;2023-06-10T01:42:45;24.47;;;7.47;;
2023;SDS011;1016;48.770;9.154;2023-06-10T01:45:11;24.87;;;8.07;;
2023;SDS011;1016;48.770;9.154;2023-06-10T01:47:37;24.50;;;7.90;;
2023;SDS011;1016;48.770;9.154;2023-06-10T01:50:02;23.77;;;6.93;;
2023;SDS011;1016;48.770;9.154;2023-06-10T01:52:28;24.90;;;7.50;;
2023;SDS011;1016;48.770;9.154;2023-06-10T01:54:53;24.00;;;7.60;;
2023;SDS011;1016;48.770;9.154;2023-06-10T01:57:19;24.27;;;7.37;;
2023;SDS011;1016;48.770;9.154;2023-06-10T01:59:45;24.87;;;7.60;;
2023;SDS011;1016;48.770;9.154;2023-06-10T02:02:11;24.60;;;7.77;;
2023;SDS011;1016;48.770;9.154;2023-06-10T02:04:36;23.73;;;7.27;;
2023;SDS011;1016;48.770;9.154;2023-06-10T02:07:02;24.80;;;7.23;;
2023;SDS011;1016;48.770;9.154;2023-06-10T02:09:29;24.33;;;7.23;;
2023;SDS011;1016;48.770;9.154;2023-06-10T02:11:55;24.57;;;7.20;;
2023;SDS011;1016;48.770;9.154;2023-06-10T02:14:20;25.33;;;7.80;;
2023;SDS011;1016;48.770;9.154;2023-06-10T02:16:46;24.90;;;7.33;;
2023;SDS011;1016;48.770;9.154;2023-06-10T02:19:12;24.63;;;8.13;;
2023;SDS011;1016;48.770;9.154;2023-06-10T02:21:38;24.20;;;7.53;;
2023;SDS011;1016;48.770;9.154;2023-06-10T02:24:04;24.80;;;7.70;;
2023;SDS011;1016;48.770;9.154;2023-06-10T02:26:30;24.77;;;8.10;;
2023;SDS011;1016;48.770;9.154;2023-06-10T02:28:56;24.17;;;7.50;;
2023;SDS011;1016;48.770;9.154;2023-06-10T02:31:22;25.57;;;7.30;;
2023;SDS011;1016;48.770;9.154;2023-06-10T02:33:49;24.97;;;7.43;;
2023;SDS011;1016;48.770;9.154;2023-06-10T02:36:14;24.47;;;7.37;;
2023;SDS011;1016;48.770;9.154;2023-06-10T02:38:40;26.03;;;7.00;;
2023;SDS011;1016;48.770;9.154;2023-06-10T02:41:06;24.40;;;7.37;;
2023;SDS011;1016;48.770;9.154;2023-06-10T02:43:31;24.50;;;7.07;;
2023;SDS011;1016;48.770;9.154;2023-06-10T02:45:57;24.90;;;6.87;;
2023;SDS011;1016;48.770;9.154;2023-06-10T02:48:23;24.47;;;7.10;;
2023;SDS011;1016;48.770;9.154;2023-06-10T02:50:49;24.87;;;7.20;;
2023;SDS011;1016;48.770;9.154;2023-06-10T02:53:15;25.73;;;7.50;;
2023;SDS011;1016;48.770;9.154;2023-06-10T02:55:41;23.70;;;6.73;;
2023;SDS011;1016;48.770;9.154;2023-06-10T02:58:06;24.27;;;6.77;;
2023;SDS011;1016;48.770;9.154;2023-06-10T03:00:32;24.67;;;7.10;;
2023;SDS011;1016;48.770;9.154;2023-06-10T03:02:58;25.63;;;7.13;;
2023;SDS011;1016;48.770;9.154;2023-06-10T03:05:27;24.10;;;6.87;;
2023;SDS011;1016;48.770;9.154;2023-06-10T03:07:53;25.97;;;6.53;;
2023;SDS011;1016;48.770;9.154;2023-06-10T03:10:18;23.60;;;6.63;;
2023;SDS011;1016;48.770;9.154;2023-06-10T03:12:44;24.00;;;6.70;;
2023;SDS011;1016;48.770;9.154;2023-06-10T03:15:09;23.57;;;6.30;;
2023;SDS011;1016;48.770;9.154;2023-06-10T03:17:35;23.70;;;6.10;;
2023;SDS011;1016;48.770;9.154;2023-06-10T03:20:01;23.57;;;6.10;;
2023;SDS011;1016;48.770;9.154;2023-06-10T03:22:26;23.60;;;6.40;;
2023;SDS011;1016;48.770;9.154;2023-06-10T03:24:52;23.90;;;6.60;;
2023;SDS011;1016;48.770;9.154;2023-06-10T03:27:18;25.30;;;6.63;;
2023;SDS011;1016;48.770;9.154;2023-06-10T03:29:44;23.47;;;6.00;;
2023;SDS011;1016;48.770;9.154;2023-06-10T03:32:09;24.30;;;7.47;;
2023;SDS011;1016;48.770;9.154;2023-06-10T03:34:35;24.37;;;6.80;;
2023;SDS011;1016;48.770;9.154;2023-06-10T03:37:00;24.27;;;6.30;;
2023;SDS011;1016;48.770;9.154;2023-06-10T03:39:26;23.40;;;6.00;;
2023;SDS011;1016;48.770;9.154;2023-06-10T03:41:54;25.80;;;6.40;;
2023;SDS011;1016;48.770;9.154;2023-06-10T03:44:21;23.93;;;6.43;;
2023;SDS011;1016;48.770;9.154;2023-06-10T03:46:46;24.00;;;6.60;;
2023;SDS011;1016;48.770;9.154;2023-06-10T03:49:12;23.47;;;6.40;;
2023;SDS011;1016;48.770;9.154;2023-06-10T03:51:38;24.30;;;6.50;;
2023;SDS011;1016;48.770;9.154;2023-06-10T03:54:03;23.80;;;5.83;;
2023;SDS011;1016;48.770;9.154;2023-06-10T03:56:29;23.00;;;5.70;;
2023;SDS011;1016;48.770;9.154;2023-06-10T03:58:55;23.67;;;6.73;;
2023;SDS011;1016;48.770;9.154;2023-06-10T04:01:21;23.67;;;6.13;;
2023;SDS011;1016;48.770;9.154;2023-06-10T04:03:48;23.90;;;6.30;;
2023;SDS011;1016;48.770;9.154;2023-06-10T04:06:15;23.77;;;6.40;;
2023;SDS011;1016;48.770;9.154;2023-06-10T04:08:41;24.37;;;6.20;;
2023;SDS011;1016;48.770;9.154;2023-06-10T04:11:07;25.50;;;6.53;;
2023;SDS011;1016;48.770;9.154;2023-06-10T04:13:33;23.30;;;6.20;;
2023;SDS011;1016;48.770;9.154;2023-06-10T04:15:59;24.17;;;6.40;;
2023;SDS011;1016;48.770;9.154;2023-06-10T04:18:24;23.47;;;6.43;;
2023;SDS011;1016;48.770;9.154;2023-06-10T04:20:50;24.00;;;6.20;;
2023;SDS011;1016;48.770;9.154;2023-06-10T04:23:16;24.67;;;6.40;;
2023;SDS011;1016;48.770;9.154;2023-06-10T04:25:41;25.93;;;6.77;;
2023;SDS011;1016;48.770;9.154;2023-06-10T04:28:07;24.20;;;6.30;;
2023;SDS011;1016;48.770;9.154;2023-06-10T04:30:32;24.20;;;7.03;;
2023;SDS011;1016;48.770;9.154;2023-06-10T04:32:58;23.80;;;6.60;;
2023;SDS011;1016;48.770;9.154;2023-06-10T04:35:24;25.70;;;7.27;;
2023;SDS011;1016;48.770;9.154;2023-06-10T04:37:52;24.07;;;6.33;;
2023;SDS011;1016;48.770;9.154;2023-06-10T04:40:18;24.80;;;6.43;;
2023;SDS011;1016;48.770;9.154;2023-06-10T04:42:44;25.63;;;6.83;;
2023;SDS011;1016;48.770;9.154;2023-06-10T04:45:10;24.23;;;7.00;;
2023;SDS011;1016;48.770;9.154;2023-06-10T04:47:36;24.30;;;6.70;;
2023;SDS011;1016;48.770;9.154;2023-06-10T04:50:02;24.77;;;7.00;;
2023;SDS011;1016;48.770;9.154;2023-06-10T04:52:28;24.23;;;7.10;;
2023;SDS011;1016;48.770;9.154;2023-06-10T04:54:54;25.30;;;7.77;;
2023;SDS011;1016;48.770;9.154;2023-06-10T04:57:19;23.93;;;6.50;;
2023;SDS011;1016;48.770;9.154;2023-06-10T04:59:46;24.27;;;6.97;;
2023;SDS011;1016;48.770;9.154;2023-06-10T05:02:12;24.80;;;7.27;;
2023;SDS011;1016;48.770;9.154;2023-06-10T05:04:38;24.67;;;7.37;;
2023;SDS011;1016;48.770;9.154;2023-06-10T05:07:04;24.83;;;7.00;;
2023;SDS011;1016;48.770;9.154;2023-06-10T05:09:30;26.90;;;7.30;;
2023;SDS011;1016;48.770;9.154;2023-06-10T05:11:55;24.30;;;7.20;;
2023;SDS011;1016;48.770;9.154;2023-06-10T05:14:21;25.03;;;7.37;;
2023;SDS011;1016;48.770;9.154;2023-06-10T05:16:48;24.33;;;6.53;;
2023;SDS011;1016;48.770;9.154;2023-06-10T05:19:13;26.80;;;9.10;;
2023;SDS011;1016;48.770;9.154;2023-06-10T05:21:41;25.17;;;6.70;;
2023;SDS011;1016;48.770;9.154;2023-06-10T05:24:06;24.20;;;6.60;;
2023;SDS011;1016;48.770;9.154;2023-06-10T05:26:32;24.90;;;6.40;;
2023;SDS011;1016;48.770;9.154;2023-06-10T05:29:02;24.60;;;6.70;;
2023;SDS011;1016;48.770;9.154;2023-06-10T05:31:27;25.50;;;6.83;;
2023;SDS011;1016;48.770;9.154;2023-06-10T05:33:53;26.10;;;6.80;;
2023;SDS011;1016;48.770;9.154;2023-06-10T05:36:18;25.87;;;7.40;;
2023;SDS011;1016;48.770;9.154;2023-06-10T05:38:44;24.30;;;7.00;;
2023;SDS011;1016;48.770;9.154;2023-06-10T05:41:09;25.67;;;6.60;;
2023;SDS011;1016;48.770;9.154;2023-06-10T05:43:35;24.07;;;5.80;;
2023;SDS011;1016;48.770;9.154;2023-06-10T05:46:00;26.23;;;6.80;;
2023;SDS011;1016;48.770;9.154;2023-06-10T05:48:26;24.33;;;6.77;;
2023;SDS011;1016;48.770;9.154;2023-06-10T05:50:51;24.70;;;6.97;;
2023;SDS011;1016;48.770;9.154;2023-06-10T05:53:17;24.60;;;6.30;;
2023;SDS011;1016;48.770;9.154;2023-06-10T05:55:43;24.60;;;6.40;;
2023;SDS011;1016;48.770;9.154;2023-06-10T05:58:09;23.33;;;6.27;;
2023;SDS011;1016;48.770;9.154;2023-06-10T06:00:35;26.10;;;6.30;;
2023;SDS011;1016;48.770;9.154;2023-06-10T06:03:00;25.70;;;6.57;;
2023;SDS011;1016;48.770;9.154;2023-06-10T06:05:26;24.80;;;5.90;;
2023;SDS011;1016;48.770;9.154;2023-06-10T06:07:51;26.07;;;7.07;;
2023;SDS011;1016;48.770;9.154;2023-06-10T06:10:17;24.73;;;5.80;;
2023;SDS011;1016;48.770;9.154;2023-06-10T06:12:43;24.03;;;5.87;;
2023;SDS011;1016;48.770;9.154;2023-06-10T06:15:10;23.33;;;6.00;;
2023;SDS011;1016;48.770;9.154;2023-06-10T06:17:36;23.00;;;5.53;;
2023;SDS011;1016;48.770;9.154;2023-06-10T06:20:02;23.10;;;5.40;;
2023;SDS011;1016;48.770;9.154;2023-06-10T06:22:28;25.80;;;6.03;;
2023;SDS011;1016;48.770;9.154;2023-06-10T06:24:54;23.90;;;6.03;;
2023;SDS011;1016;48.770;9.154;2023-06-10T06:27:19;25.10;;;6.30;;
2023;SDS011;1016;48.770;9.154;2023-06-10T06:29:46;24.17;;;6.27;;
2023;SDS011;1016;48.770;9.154;2023-06-10T06:32:11;24.20;;;6.10;;
2023;SDS011;1016;48.770;9.154;2023-06-10T06:34:37;23.77;;;6.07;;
2023;SDS011;1016;48.770;9.154;2023-06-10T06:37:02;23.77;;;6.20;;
2023;SDS011;1016;48.770;9.154;2023-06-10T06:39:28;24.30;;;6.47;;
2023;SDS011;1016;48.770;9.154;2023-06-10T06:41:54;24.40;;;6.60;;
2023;SDS011;1016;48.770;9.154;2023-06-10T06:44:19;23.03;;;5.57;;
2023;SDS011;1016;48.770;9.154;2023-06-10T06:46:45;24.00;;;6.20;;
2023;SDS011;1016;48.770;9.154;2023-06-10T06:49:10;23.47;;;5.97;;
2023;SDS011;1016;48.770;9.154;2023-06-10T06:51:36;24.07;;;5.77;;
2023;SDS011;1016;48.770;9.154;2023-06-10T06:54:02;24.60;;;6.20;;
2023;SDS011;1016;48.770;9.154;2023-06-10T06:56:27;27.23;;;6.07;;
2023;SDS011;1016;48.770;9.154;2023-06-10T06:58:53;23.97;;;6.03;;
2023;SDS011;1016;48.770;9.154;2023-06-10T07:01:19;23.80;;;5.93;;
2023;SDS011;1016;48.770;9.154;2023-06-10T07:03:44;23.57;;;5.57;;
2023;SDS011;1016;48.770;9.154;2023-06-10T07:06:10;23.47;;;5.93;;
2023;SDS011;1016;48.770;9.154;2023-06-10T07:08:35;23.00;;;5.40;;
2023;SDS011;1016;48.770;9.154;2023-06-10T07:11:01;23.73;;;6.27;;
2023;SDS011;1016;48.770;9.154;2023-06-10T07:13:26;24.37;;;6.27;;
2023;SDS011;1016;48.770;9.154;2023-06-10T07:15:52;25.10;;;6.10;;
2023;SDS011;1016;48.770;9.154;2023-06-10T07:18:17;24.10;;;5.63;;
2023;SDS011;1016;48.770;9.154;2023-06-10T07:20:43;24.70;;;6.13;;
2023;SDS011;1016;48.770;9.154;2023-06-10T07:23:09;23.77;;;5.60;;
2023;SDS011;1016;48.770;9.154;2023-06-10T07:25:35;24.37;;;6.20;;
2023;SDS011;1016;48.770;9.154;2023-06-10T07:28:00;25.53;;;5.40;;
2023;SDS011;1016;48.770;9.154;2023-06-10T07:30:26;24.33;;;6.00;;
2023;SDS011;1016;48.770;9.154;2023-06-10T07:32:51;24.07;;;5.60;;
2023;SDS011;1016;48.770;9.154;2023-06-10T07:35:17;24.90;;;6.00;;
2023;SDS011;1016;48.770;9.154;2023-06-10T07:37:42;24.07;;;5.87;;
2023;SDS011;1016;48.770;9.154;2023-06-10T07:40:08;22.57;;;5.30;;
2023;SDS011;1016;48.770;9.154;2023-06-10T07:42:34;23.30;;;6.03;;
2023;SDS011;1016;48.770;9.154;2023-06-10T07:45:01;23.23;;;5.57;;
2023;SDS011;1016;48.770;9.154;2023-06-10T07:47:27;24.60;;;5.90;;
2023;SDS011;1016;48.770;9.154;2023-06-10T07:49:53;24.30;;;5.80;;
2023;SDS011;1016;48.770;9.154;2023-06-10T07:52:18;22.93;;;5.60;;
2023;SDS011;1016;48.770;9.154;2023-06-10T07:54:44;24.30;;;6.40;;
2023;SDS011;1016;48.770;9.154;2023-06-10T07:57:10;24.38;;;6.18;;
2023;SDS011;1016;48.770;9.154;2023-06-10T07:59:35;24.90;;;5.90;;
2023;SDS011;1016;48.770;9.154;2023-06-10T08:02:01;24.40;;;5.57;;
2023;SDS011;1016;48.770;9.154;2023-06-10T08:04:26;24.20;;;5.70;;
2023;SDS011;1016;48.770;9.154;2023-06-10T08:06:52;24.27;;;5.90;;
2023;SDS011;1016;48.770;9.154;2023-06-10T08:09:18;24.93;;;6.00;;
2023;SDS011;1016;48.770;9.154;2023-06-10T08:11:43;24.30;;;6.15;;
2023;SDS011;1016;48.770;9.154;2023-06-10T08:14:11;24.55;;;6.03;;
2023;SDS011;1016;48.770;9.154;2023-06-10T08:16:36;23.50;;;6.13;;
2023;SDS011;1016;48.770;9.154;2023-06-10T08:19:02;26.50;;;6.40;;
2023;SDS011;1016;48.770;9.154;2023-06-10T08:21:28;24.17;;;6.33;;
2023;SDS011;1016;48.770;9.154;2023-06-10T08:23:53;25.60;;;5.70;;
2023;SDS011;1016;48.770;9.154;2023-06-10T08:26:19;23.30;;;5.90;;
2023;SDS011;1016;48.770;9.154;2023-06-10T08:28:44;23.20;;;5.90;;
2023;SDS011;1016;48.770;9.154;2023-06-10T08:31:10;23.30;;;5.90;;
2023;SDS011;1016;48.770;9.154;2023-06-10T08:33:36;23.17;;;6.10;;
2023;SDS011;1016;48.770;9.154;2023-06-10T08:36:01;24.53;;;6.50;;
2023;SDS011;1016;48.770;9.154;2023-06-10T08:38:27;24.40;;;5.83;;
2023;SDS011;1016;48.770;9.154;2023-06-10T08:40:53;23.50;;;5.70;;
2023;SDS011;1016;48.770;9.154;2023-06-10T08:43:24;23.93;;;5.50;;
2023;SDS011;1016;48.770;9.154;2023-06-10T08:46:10;22.87;;;5.17;;
2023;SDS011;1016;48.770;9.154;2023-06-10T08:48:40;23.07;;;5.30;;
2023;SDS011;1016;48.770;9.154;2023-06-10T08:51:09;24.60;;;6.20;;
2023;SDS011;1016;48.770;9.154;2023-06-10T08:53:36;23.53;;;5.70;;
2023;SDS011;1016;48.770;9.154;2023-06-10T08:56:06;23.23;;;5.90;;
2023;SDS011;1016;48.770;9.154;2023-06-10T08:58:33;24.90;;;6.20;;
2023;SDS011;1016;48.770;9.154;2023-06-10T09:01:05;22.60;;;5.20;;
2023;SDS011;1016;48.770;9.154;2023-06-10T09:03:30;23.07;;;5.90;;
2023;SDS011;1016;48.770;9.154;2023-06-10T09:05:56;22.60;;;4.90;;
2023;SDS011;1016;48.770;9.154;2023-06-10T09:08:22;23.73;;;5.20;;
2023;SDS011;1016;48.770;9.154;2023-06-10T09:10:48;23.83;;;4.90;;
2023;SDS011;1016;48.770;9.154;2023-06-10T09:13:14;23.00;;;5.10;;
2023;SDS011;1016;48.770;9.154;2023-06-10T09:15:43;22.80;;;5.20;;
2023;SDS011;1016;48.770;9.154;2023-06-10T09:18:09;22.77;;;5.20;;
2023;SDS011;1016;48.770;9.154;2023-06-10T09:20:35;22.83;;;4.70;;
2023;SDS011;1016;48.770;9.154;2023-06-10T09:23:00;22.50;;;4.87;;
2023;SDS011;1016;48.770;9.154;2023-06-10T09:25:36;23.23;;;4.87;;
2023;SDS011;1016;48.770;9.154;2023-06-10T09:28:03;22.07;;;4.73;;
2023;SDS011;1016;48.770;9.154;2023-06-10T09:30:30;24.90;;;5.60;;
2023;SDS011;1016;48.770;9.154;2023-06-10T09:32:56;22.37;;;5.00;;
2023;SDS011;1016;48.770;9.154;2023-06-10T09:35:24;23.37;;;5.57;;
2023;SDS011;1016;48.770;9.154;2023-06-10T09:37:54;22.90;;;5.17;;
2023;SDS011;1016;48.770;9.154;2023-06-10T09:40:21;22.90;;;5.40;;
2023;SDS011;1016;48.770;9.154;2023-06-10T09:42:47;25.03;;;5.53;;
2023;SDS011;1016;48.770;9.154;2023-06-10T09:45:22;22.27;;;5.03;;
2023;SDS011;1016;48.770;9.154;2023-06-10T09:47:52;23.30;;;4.83;;
2023;SDS011;1016;48.770;9.154;2023-06-10T09:50:18;23.87;;;5.07;;
2023;SDS011;1016;48.770;9.154;2023-06-10T09:52:45;22.40;;;4.90;;
2023;SDS011;1016;48.770;9.154;2023-06-10T09:55:11;22.73;;;5.17;;
2023;SDS011;1016;48.770;9.154;2023-06-10T09:57:36;22.60;;;5.10;;
2023;SDS011;1016;48.770;9.154;2023-06-10T10:00:05;22.60;;;5.30;;
2023;SDS011;1016;48.770;9.154;2023-06-10T10:02:48;23.03;;;5.50;;
2023;SDS011;1016;48.770;9.154;2023-06-10T10:05:15;23.00;;;5.10;;
2023;SDS011;1016;48.770;9.154;2023-06-10T10:07:43;24.10;;;4.67;;
2023;SDS011;1016;48.770;9.154;2023-06-10T10:10:10;21.70;;;4.73;;
2023;SDS011;1016;48.770;9.154;2023-06-10T10:12:37;23.10;;;4.87;;
2023;SDS011;1016;48.770;9.154;2023-06-10T10:15:05;22.87;;;4.90;;
2023;SDS011;1016;48.770;9.154;2023-06-10T10:17:34;24.47;;;5.60;;
2023;SDS011;1016;48.770;9.154;2023-06-10T10:20:20;23.43;;;5.27;;
2023;SDS011;1016;48.770;9.154;2023-06-10T10:22:55;22.90;;;5.37;;
2023;SDS011;1016;48.770;9.154;2023-06-10T10:25:27;22.80;;;5.73;;
2023;SDS011;1016;48.770;9.154;2023-06-10T10:27:56;22.93;;;4.97;;
2023;SDS011;1016;48.770;9.154;2023-06-10T10:30:27;22.90;;;4.93;;
2023;SDS011;1016;48.770;9.154;2023-06-10T10:32:57;22.30;;;4.60;;
2023;SDS011;1016;48.770;9.154;2023-06-10T10:35:26;22.37;;;4.70;;
2023;SDS011;1016;48.770;9.154;2023-06-10T10:37:53;21.70;;;4.80;;
2023;SDS011;1016;48.770;9.154;2023-06-10T10:40:20;23.63;;;5.13;;
2023;SDS011;1016;48.770;9.154;2023-06-10T10:42:47;22.23;;;4.80;;
2023;SDS011;1016;48.770;9.154;2023-06-10T10:45:14;23.30;;;4.83;;
2023;SDS011;1016;48.770;9.154;2023-06-10T10:47:39;22.10;;;4.90;;
2023;SDS011;1016;48.770;9.154;2023-06-10T10:50:18;22.10;;;5.07;;
2023;SDS011;1016;48.770;9.154;2023-06-10T10:55:25;22.40;;;4.70;;
2023;SDS011;1016;48.770;9.154;2023-06-10T11:00:33;21.70;;;4.43;;
2023;SDS011;1016;48.770;9.154;2023-06-10T11:05:32;21.83;;;4.47;;
2023;SDS011;1016;48.770;9.154;2023-06-10T11:08:03;22.07;;;4.40;;
2023;SDS011;1016;48.770;9.154;2023-06-10T11:10:33;22.10;;;4.90;;
2023;SDS011;1016;48.770;9.154;2023-06-10T11:13:20;23.20;;;4.83;;
2023;SDS011;1016;48.770;9.154;2023-06-10T11:15:47;22.43;;;4.60;;
2023;SDS011;1016;48.770;9.154;2023-06-10T11:18:22;23.73;;;5.37;;
2023;SDS011;1016;48.770;9.154;2023-06-10T11:23:24;22.90;;;5.67;;
2023;SDS011;1016;48.770;9.154;2023-06-10T11:28:38;27.60;;;5.27;;
2023;SDS011;1016;48.770;9.154;2023-06-10T11:31:04;22.20;;;5.30;;
2023;SDS011;1016;48.770;9.154;2023-06-10T11:33:30;22.83;;;5.23;;
2023;SDS011;1016;48.770;9.154;2023-06-10T11:35:56;22.27;;;4.90;;
2023;SDS011;1016;48.770;9.154;2023-06-10T11:38:23;22.30;;;5.30;;
2023;SDS011;1016;48.770;9.154;2023-06-10T11:40:49;23.10;;;5.63;;
2023;SDS011;1016;48.770;9.154;2023-06-10T11:43:16;21.97;;;4.83;;
2023;SDS011;1016;48.770;9.154;2023-06-10T11:45:42;22.20;;;5.17;;
2023;SDS011;1016;48.770;9.154;2023-06-10T11:48:09;22.73;;;5.10;;
2023;SDS011;1016;48.770;9.154;2023-06-10T11:50:35;22.23;;;5.17;;
2023;SDS011;1016;48.770;9.154;2023-06-10T11:53:01;23.77;;;5.17;;
2023;SDS011;1016;48.770;9.154;2023-06-10T11:55:44;22.70;;;5.40;;
2023;SDS011;1016;48.770;9.154;2023-06-10T11:58:14;22.00;;;5.30;;
2023;SDS011;1016;48.770;9.154;2023-06-10T12:00:44;22.07;;;5.03;;
2023;SDS011;1016;48.770;9.154;2023-06-10T12:03:11;21.90;;;5.30;;
2023;SDS011;1016;48.770;9.154;2023-06-10T12:05:37;23.90;;;4.80;;
2023;SDS011;1016;48.770;9.154;2023-06-10T12:08:11;22.10;;;4.87;;
2023;SDS011;1016;48.770;9.154;2023-06-10T12:10:40;24.27;;;5.13;;
2023;SDS011;1016;48.770;9.154;2023-06-10T12:13:08;22.33;;;5.20;;
2023;SDS011;1016;48.770;9.154;2023-06-10T12:15:34;22.17;;;5.50;;
2023;SDS011;1016;48.770;9.154;2023-06-10T12:18:00;21.97;;;5.13;;
2023;SDS011;1016;48.770;9.154;2023-06-10T12:20:26;21.90;;;4.60;;
2023;SDS011;1016;48.770;9.154;2023-06-10T12:22:53;22.30;;;4.73;;
2023;SDS011;1016;48.770;9.154;2023-06-10T12:25:24;23.90;;;4.97;;
2023;SDS011;1016;48.770;9.154;2023-06-10T12:27:51;23.07;;;5.50;;
2023;SDS011;1016;48.770;9.154;2023-06-10T12:30:18;21.83;;;5.20;;
2023;SDS011;1016;48.770;9.154;2023-06-10T12:32:45;22.40;;;5.10;;
2023;SDS011;1016;48.770;9.154;2023-06-10T12:35:12;22.13;;;5.13;;
2023;SDS011;1016;48.770;9.154;2023-06-10T12:37:42;22.20;;;4.30;;
2023;SDS011;1016;48.770;9.154;2023-06-10T12:40:19;22.30;;;4.40;;
2023;SDS011;1016;48.770;9.154;2023-06-10T12:42:51;22.73;;;4.77;;
2023;SDS011;1016;48.770;9.154;2023-06-10T12:45:25;22.50;;;4.57;;
2023;SDS011;1016;48.770;9.154;2023-06-10T12:48:04;24.57;;;4.60;;
2023;SDS011;1016;48.770;9.154;2023-06-10T12:50:37;21.83;;;4.93;;
2023;SDS011;1016;48.770;9.154;2023-06-10T12:53:04;21.30;;;4.67;;
2023;SDS011;1016;48.770;9.154;2023-06-10T12:55:30;22.50;;;4.83;;
2023;SDS011;1016;48.770;9.154;2023-06-10T12:57:56;25.03;;;5.67;;
2023;SDS011;1016;48.770;9.154;2023-06-10T13:00:22;21.73;;;4.63;;
2023;SDS011;1016;48.770;9.154;2023-06-10T13:02:50;22.00;;;4.60;;
2023;SDS011;1016;48.770;9.154;2023-06-10T13:05:17;22.90;;;4.80;;
2023;SDS011;1016;48.770;9.154;2023-06-10T13:07:43;22.50;;;4.83;;
2023;SDS011;1016;48.770;9.154;2023-06-10T13:10:09;25.27;;;5.27;;
2023;SDS011;1016;48.770;9.154;2023-06-10T13:12:35;23.70;;;4.47;;
2023;SDS011;1016;48.770;9.154;2023-06-10T13:15:01;21.67;;;4.70;;
2023;SDS011;1016;48.770;9.154;2023-06-10T13:17:29;21.40;;;4.60;;
2023;SDS011;1016;48.770;9.154;2023-06-10T13:19:54;21.37;;;4.30;;
2023;SDS011;1016;48.770;9.154;2023-06-10T13:22:20;22.20;;;4.77;;
2023;SDS011;1016;48.770;9.154;2023-06-10T13:24:46;22.30;;;4.27;;
2023;SDS011;1016;48.770;9.154;2023-06-10T13:27:12;22.10;;;4.40;;
2023;SDS011;1016;48.770;9.154;2023-06-10T13:29:39;22.33;;;4.10;;
2023;SDS011;1016;48.770;9.154;2023-06-10T13:32:05;21.80;;;4.63;;
2023;SDS011;1016;48.770;9.154;2023-06-10T13:34:31;21.27;;;4.23;;
2023;SDS011;1016;48.770;9.154;2023-06-10T13:36:56;21.27;;;4.23;;
2023;SDS011;1016;48.770;9.154;2023-06-10T13:39:22;22.47;;;4.43;;
2023;SDS011;1016;48.770;9.154;2023-06-10T13:41:48;22.43;;;4.07;;
2023;SDS011;1016;48.770;9.154;2023-06-10T13:44:13;21.83;;;4.37;;
2023;SDS011;1016;48.770;9.154;2023-06-10T13:46:39;22.00;;;4.30;;
2023;SDS011;1016;48.770;9.154;2023-06-10T13:49:06;20.63;;;3.73;;
2023;SDS011;1016;48.770;9.154;2023-06-10T13:51:31;22.60;;;3.90;;
2023;SDS011;1016;48.770;9.154;2023-06-10T13:53:57;21.67;;;3.83;;
2023;SDS011;1016;48.770;9.154;2023-06-10T13:56:22;22.00;;;4.30;;
2023;SDS011;1016;48.770;9.154;2023-06-10T13:58:48;21.60;;;4.00;;
2023;SDS011;1016;48.770;9.154;2023-06-10T14:01:13;21.60;;;4.13;;
2023;SDS011;1016;48.770;9.154;2023-06-10T14:03:39;40.20;;;5.17;;
2023;SDS011;1016;48.770;9.154;2023-06-10T14:06:04;43.33;;;5.67;;
2023;SDS011;1016;48.770;9.154;2023-06-10T14:08:30;57.23;;;7.30;;
2023;SDS011;1016;48.770;9.154;2023-06-10T14:10:55;33.00;;;5.23;;
2023;SDS011;1016;48.770;9.154;2023-06-10T14:13:21;25.13;;;4.40;;
2023;SDS011;1016;48.770;9.154;2023-06-10T14:15:47;27.53;;;4.37;;
2023;SDS011;1016;48.770;9.154;2023-06-10T14:18:12;24.77;;;4.50;;
2023;SDS011;1016;48.770;9.154;2023-06-10T14:20:38;32.70;;;5.13;;
2023;SDS011;1016;48.770;9.154;2023-06-10T14:23:03;109.30;;;11.43;;
2023;SDS011;1016;48.770;9.154;2023-06-10T14:25:29;30.17;;;5.10;;
2023;SDS011;1016;48.770;9.154;2023-06-10T14:27:54;19.90;;;3.50;;
2023;SDS011;1016;48.770;9.154;2023-06-10T14:30:20;21.27;;;3.80;;
2023;SDS011;1016;48.770;9.154;2023-06-10T14:32:46;21.57;;;4.03;;
2023;SDS011;1016;48.770;9.154;2023-06-10T14:35:11;20.50;;;3.80;;
2023;SDS011;1016;48.770;9.154;2023-06-10T14:37:37;20.90;;;4.00;;
2023;SDS011;1016;48.770;9.154;2023-06-10T14:40:03;20.97;;;4.10;;
2023;SDS011;1016;48.770;9.154;2023-06-10T14:42:30;21.67;;;4.43;;
2023;SDS011;1016;48.770;9.154;2023-06-10T14:44:56;22.70;;;3.80;;
2023;SDS011;1016;48.770;9.154;2023-06-10T14:47:22;21.10;;;4.20;;
2023;SDS011;1016;48.770;9.154;2023-06-10T14:49:48;22.00;;;4.63;;
2023;SDS011;1016;48.770;9.154;2023-06-10T14:52:13;21.23;;;4.23;;
2023;SDS011;1016;48.770;9.154;2023-06-10T14:54:39;23.07;;;4.30;;
2023;SDS011;1016;48.770;9.154;2023-06-10T14:57:04;22.60;;;4.53;;
2023;SDS011;1016;48.770;9.154;2023-06-10T14:59:30;22.23;;;4.50;;
2023;SDS011;1016;48.770;9.154;2023-06-10T15:01:56;22.33;;;4.60;;
2023;SDS011;1016;48.770;9.154;2023-06-10T15:04:22;22.83;;;4.50;;
2023;SDS011;1016;48.770;9.154;2023-06-10T15:06:47;21.20;;;4.10;;
2023;SDS011;1016;48.770;9.154;2023-06-10T15:09:14;22.83;;;4.30;;
2023;SDS011;1016;48.770;9.154;2023-06-10T15:11:40;23.20;;;4.45;;
2023;SDS011;1016;48.770;9.154;2023-06-10T15:14:06;27.80;;;4.27;;